createdAt,value
2022-11-22T00:00:25.312Z,99004.31
2022-11-22T00:02:51.875Z,99013.78
2022-11-22T00:05:18.400Z,99014.41
2022-11-22T00:07:44.893Z,99013.34
2022-11-22T00:10:13.435Z,99003.88
2022-11-22T00:12:40.774Z,98995.72
2022-11-22T00:15:07.964Z,98995.94
2022-11-22T00:17:34.728Z,98995.06
2022-11-22T00:20:01.326Z,98992.38
2022-11-22T00:22:27.807Z,99001.72
2022-11-22T00:24:54.341Z,98991.31
2022-11-22T00:27:21.180Z,98985.28
2022-11-22T00:29:47.741Z,98996.56
2022-11-22T00:32:14.405Z,99000.22
2022-11-22T00:34:40.863Z,99001.28
2022-11-22T00:37:07.795Z,99000.66
2022-11-22T00:39:34.578Z,99002.47
2022-11-22T00:42:01.044Z,98995.94
2022-11-22T00:44:27.526Z,98992.69
2022-11-22T00:46:54.271Z,98999.59
2022-11-22T00:49:20.725Z,99000.38
2022-11-22T00:51:47.393Z,99004.34
2022-11-22T00:54:13.830Z,99001.63
2022-11-22T00:56:40.305Z,99002.03
2022-11-22T00:59:06.723Z,98993.41
2022-11-22T01:01:33.194Z,99003.09
2022-11-22T01:04:00.165Z,98994.00
2022-11-22T01:06:26.590Z,99000.22
2022-11-22T01:08:53.324Z,98994.13
2022-11-22T01:11:20.339Z,98990.13
2022-11-22T01:13:46.995Z,98978.78
2022-11-22T01:16:14.662Z,98977.72
2022-11-22T01:18:41.501Z,98965.31
2022-11-22T01:21:07.969Z,98958.16
2022-11-22T01:23:35.675Z,98962.97
2022-11-22T01:26:02.185Z,98961.66
2022-11-22T01:28:28.713Z,98951.56
2022-11-22T01:30:55.275Z,98959.63
2022-11-22T01:33:22.274Z,98948.03
2022-11-22T01:35:48.856Z,98940.75
2022-11-22T01:38:15.307Z,98932.53
2022-11-22T01:40:41.902Z,98934.81
2022-11-22T01:43:26.147Z,98928.31
2022-11-22T01:46:15.475Z,98920.31
2022-11-22T01:48:48.033Z,98917.34
2022-11-22T01:51:20.715Z,98922.13
2022-11-22T01:53:47.275Z,98915.97
2022-11-22T01:56:18.380Z,98912.44
2022-11-22T01:58:48.915Z,98911.28
2022-11-22T02:01:15.377Z,98900.81
2022-11-22T02:03:46.747Z,98906.97
2022-11-22T02:06:14.362Z,98888.91
2022-11-22T02:08:56.770Z,98890.94
2022-11-22T02:11:29.615Z,98889.53
2022-11-22T02:13:59.345Z,98888.34
2022-11-22T02:16:25.821Z,98874.34
2022-11-22T02:18:52.269Z,98873.75
2022-11-22T02:21:18.705Z,98888.00
2022-11-22T02:23:58.725Z,98887.75
2022-11-22T02:26:28.040Z,98884.38
2022-11-22T02:28:57.787Z,98886.47
2022-11-22T02:31:44.767Z,98873.09
2022-11-22T02:34:12.271Z,98884.00
2022-11-22T02:36:43.944Z,98874.38
2022-11-22T02:39:14.503Z,98884.81
2022-11-22T02:41:40.997Z,98876.91
2022-11-22T02:44:09.725Z,98878.19
2022-11-22T02:46:36.389Z,98866.00
2022-11-22T02:49:02.879Z,98872.59
2022-11-22T02:51:29.353Z,98865.69
2022-11-22T02:53:56.793Z,98875.28
2022-11-22T02:56:23.296Z,98878.66
2022-11-22T02:58:49.694Z,98884.13
2022-11-22T03:01:16.331Z,98881.69
2022-11-22T03:03:42.774Z,98890.38
2022-11-22T03:06:09.214Z,98882.09
2022-11-22T03:08:35.616Z,98882.13
2022-11-22T03:11:02.151Z,98878.44
2022-11-22T03:13:28.748Z,98882.84
2022-11-22T03:15:55.177Z,98886.50
2022-11-22T03:18:21.669Z,98878.81
2022-11-22T03:20:48.135Z,98882.34
2022-11-22T03:23:14.843Z,98880.69
2022-11-22T03:25:41.325Z,98878.06
2022-11-22T03:28:07.846Z,98889.22
2022-11-22T03:30:34.363Z,98887.56
2022-11-22T03:33:00.821Z,98885.84
2022-11-22T03:35:27.225Z,98898.06
2022-11-22T03:37:53.663Z,98898.59
2022-11-22T03:40:21.082Z,98882.38
2022-11-22T03:42:47.657Z,98878.03
2022-11-22T03:45:14.171Z,98857.84
2022-11-22T03:47:40.592Z,98864.41
2022-11-22T03:50:07.280Z,98872.69
2022-11-22T03:52:33.706Z,98868.84
2022-11-22T03:55:00.149Z,98849.31
2022-11-22T03:57:26.590Z,98839.44
2022-11-22T03:59:53.000Z,98837.41
2022-11-22T04:02:19.514Z,98830.72
2022-11-22T04:04:45.952Z,98862.38
2022-11-22T04:07:12.559Z,98849.38
2022-11-22T04:09:38.993Z,98856.56
2022-11-22T04:12:05.560Z,98837.16
2022-11-22T04:14:50.335Z,98844.16
2022-11-22T04:17:37.483Z,98838.03
2022-11-22T04:20:23.043Z,98846.31
2022-11-22T04:22:58.043Z,98847.78
2022-11-22T04:25:27.271Z,98846.47
2022-11-22T04:27:54.415Z,98846.09
2022-11-22T04:30:21.141Z,98839.06
2022-11-22T04:32:47.792Z,98845.06
2022-11-22T04:35:15.842Z,98842.75
2022-11-22T04:37:43.083Z,98838.75
2022-11-22T04:40:10.387Z,98846.44
2022-11-22T04:42:55.148Z,98839.03
2022-11-22T04:45:21.722Z,98835.44
2022-11-22T04:48:00.234Z,98831.75
2022-11-22T04:50:49.981Z,98839.34
2022-11-22T04:53:17.666Z,98850.38
2022-11-22T04:55:46.093Z,98852.41
2022-11-22T04:58:13.481Z,98847.75
2022-11-22T05:00:40.247Z,98845.78
2022-11-22T05:03:07.285Z,98856.00
2022-11-22T05:05:38.337Z,98863.69
2022-11-22T05:08:05.901Z,98854.78
2022-11-22T05:10:53.183Z,98859.72
2022-11-22T05:13:22.405Z,98865.81
2022-11-22T05:15:51.218Z,98876.22
2022-11-22T05:18:22.714Z,98863.38
2022-11-22T05:20:49.526Z,98864.06
2022-11-22T05:23:35.093Z,98862.97
2022-11-22T05:26:01.705Z,98855.16
2022-11-22T05:28:30.201Z,98855.97
2022-11-22T05:30:56.872Z,98857.81
2022-11-22T05:33:23.674Z,98857.72
2022-11-22T05:35:50.446Z,98870.94
2022-11-22T05:38:16.957Z,98869.59
2022-11-22T05:40:43.394Z,98859.59
2022-11-22T05:43:09.906Z,98864.16
2022-11-22T05:45:36.318Z,98862.25
2022-11-22T05:48:02.878Z,98863.34
2022-11-22T05:50:29.273Z,98861.53
2022-11-22T05:52:59.897Z,98857.22
2022-11-22T05:55:26.330Z,98872.16
2022-11-22T05:57:52.770Z,98859.59
2022-11-22T06:00:19.396Z,98860.53
2022-11-22T06:02:45.850Z,98857.97
2022-11-22T06:05:12.293Z,98848.56
2022-11-22T06:07:38.812Z,98858.47
2022-11-22T06:10:05.527Z,98865.91
2022-11-22T06:12:31.980Z,98857.59
2022-11-22T06:14:58.389Z,98864.13
2022-11-22T06:17:24.807Z,98861.59
2022-11-22T06:19:51.229Z,98866.03
2022-11-22T06:22:17.707Z,98870.16
2022-11-22T06:24:44.178Z,98869.41
2022-11-22T06:27:10.601Z,98868.47
2022-11-22T06:29:37.066Z,98879.09
2022-11-22T06:32:04.273Z,98871.22
2022-11-22T06:34:30.882Z,98882.34
2022-11-22T06:36:57.314Z,98880.84
2022-11-22T06:39:23.818Z,98881.38
2022-11-22T06:41:50.211Z,98890.13
2022-11-22T06:44:16.850Z,98894.63
2022-11-22T06:46:43.274Z,98893.34
2022-11-22T06:49:09.786Z,98898.16
2022-11-22T06:51:36.313Z,98899.44
2022-11-22T06:54:02.866Z,98901.94
2022-11-22T06:56:36.712Z,98917.81
2022-11-22T06:59:05.498Z,98926.81
2022-11-22T07:01:34.176Z,98931.53
2022-11-22T07:04:01.934Z,98923.00
2022-11-22T07:06:30.746Z,98923.16
2022-11-22T07:08:57.373Z,98920.38
2022-11-22T07:11:26.448Z,98921.22
2022-11-22T07:13:54.124Z,98925.78
2022-11-22T07:16:21.729Z,98922.84
2022-11-22T07:18:49.062Z,98914.88
2022-11-22T07:21:17.055Z,98924.22
2022-11-22T07:23:45.166Z,98922.72
2022-11-22T07:26:13.014Z,98911.09
2022-11-22T07:28:39.816Z,98918.53
2022-11-22T07:31:08.634Z,98923.38
2022-11-22T07:33:35.577Z,98933.38
2022-11-22T07:36:06.351Z,98918.88
2022-11-22T07:38:34.020Z,98919.72
2022-11-22T07:41:00.938Z,98937.34
2022-11-22T07:43:27.695Z,98936.91
2022-11-22T07:45:57.891Z,98937.44
2022-11-22T07:48:24.564Z,98938.47
2022-11-22T07:50:51.143Z,98929.88
2022-11-22T07:53:17.633Z,98942.09
2022-11-22T07:55:44.069Z,98947.78
2022-11-22T07:58:10.629Z,98953.56
2022-11-22T08:00:37.230Z,98948.19
2022-11-22T08:03:04.089Z,98942.75
2022-11-22T08:05:30.502Z,98941.75
2022-11-22T08:07:57.047Z,98940.50
2022-11-22T08:10:23.532Z,98946.41
2022-11-22T08:12:49.970Z,98946.00
2022-11-22T08:15:17.543Z,98945.75
2022-11-22T08:17:44.261Z,98942.44
2022-11-22T08:20:11.262Z,98950.13
2022-11-22T08:22:38.888Z,98957.53
2022-11-22T08:25:07.811Z,98954.09
2022-11-22T08:27:34.278Z,98961.69
2022-11-22T08:30:00.712Z,98964.75
2022-11-22T08:32:27.148Z,98964.50
2022-11-22T08:34:53.625Z,98963.53
2022-11-22T08:37:20.033Z,98980.88
2022-11-22T08:39:46.478Z,98981.06
2022-11-22T08:42:12.916Z,98984.97
2022-11-22T08:44:39.334Z,98981.91
2022-11-22T08:47:05.779Z,98987.66
2022-11-22T08:49:32.545Z,98993.22
2022-11-22T08:51:59.360Z,98996.47
2022-11-22T08:54:25.764Z,98998.75
2022-11-22T08:56:52.179Z,99003.22
2022-11-22T08:59:18.804Z,99011.78
2022-11-22T09:01:45.442Z,99015.19
2022-11-22T09:04:11.922Z,99015.91
2022-11-22T09:09:40.732Z,99010.69
2022-11-22T09:12:07.529Z,99016.50
2022-11-22T09:14:33.961Z,99016.41
2022-11-22T09:17:00.396Z,99018.97
2022-11-22T09:19:26.838Z,99019.06
2022-11-22T09:21:53.246Z,99024.75
2022-11-22T09:24:19.767Z,99023.69
2022-11-22T09:26:46.240Z,99028.06
2022-11-22T09:29:12.798Z,99021.03
2022-11-22T09:31:39.242Z,99029.06
2022-11-22T09:34:07.379Z,99037.91
2022-11-22T09:36:33.865Z,99040.59
2022-11-22T09:39:00.290Z,99038.38
2022-11-22T09:41:36.247Z,99043.28
2022-11-22T09:44:30.859Z,99043.34
2022-11-22T09:47:31.365Z,99042.75
2022-11-22T09:50:18.599Z,99042.09
2022-11-22T09:52:59.623Z,99037.13
2022-11-22T09:55:32.126Z,99043.19
2022-11-22T09:58:25.086Z,99040.75
2022-11-22T10:00:54.844Z,99040.25
2022-11-22T10:03:56.078Z,99037.34
2022-11-22T10:06:41.787Z,99030.91
2022-11-22T10:09:34.131Z,99036.97
2022-11-22T10:12:06.843Z,99044.47
2022-11-22T10:14:44.779Z,99043.97
2022-11-22T10:17:23.069Z,99040.16
2022-11-22T10:19:58.290Z,99045.59
2022-11-22T10:22:28.328Z,99041.16
2022-11-22T10:24:54.901Z,99036.00
2022-11-22T10:27:21.358Z,99043.78
2022-11-22T10:30:05.080Z,99041.81
2022-11-22T10:33:00.776Z,99044.97
2022-11-22T10:36:02.038Z,99044.31
2022-11-22T10:39:07.327Z,99050.16
2022-11-22T10:41:45.899Z,99042.69
2022-11-22T10:44:15.094Z,99036.47
2022-11-22T10:46:49.275Z,99032.16
2022-11-22T10:49:56.008Z,99027.81
2022-11-22T10:52:34.574Z,99036.25
2022-11-22T10:55:19.391Z,99023.59
2022-11-22T10:57:58.466Z,99028.72
2022-11-22T11:00:26.409Z,99022.75
2022-11-22T11:03:20.644Z,99004.66
2022-11-22T11:06:24.085Z,99004.06
2022-11-22T11:10:09.699Z,98996.41
2022-11-22T11:12:18.380Z,98986.84
2022-11-22T11:14:57.468Z,98980.38
2022-11-22T11:17:29.902Z,98972.56
2022-11-22T11:20:01.756Z,98970.72
2022-11-22T11:23:06.452Z,98972.50
2022-11-22T11:25:40.532Z,98977.31
2022-11-22T11:28:13.545Z,98984.84
2022-11-22T11:30:48.623Z,98975.63
2022-11-22T11:33:21.297Z,98981.00
2022-11-22T11:35:48.285Z,98981.28
2022-11-22T11:38:50.917Z,98982.16
2022-11-22T11:41:38.694Z,98980.53
2022-11-22T11:44:28.538Z,98969.69
2022-11-22T11:46:55.329Z,98981.09
2022-11-22T11:49:25.799Z,98983.28
2022-11-22T11:52:04.423Z,98983.25
2022-11-22T11:54:43.115Z,98977.34
2022-11-22T11:57:30.765Z,98981.47
2022-11-22T12:00:00.567Z,98993.09
2022-11-22T12:02:40.863Z,98990.56
2022-11-22T12:05:13.305Z,98986.59
2022-11-22T12:07:41.073Z,98991.44
2022-11-22T12:10:45.432Z,99000.06
2022-11-22T12:13:57.669Z,99006.09
2022-11-22T12:16:24.402Z,99010.03
2022-11-22T12:18:59.674Z,99006.38
2022-11-22T12:21:35.135Z,99012.59
2022-11-22T12:25:16.647Z,99015.53
2022-11-22T12:27:35.990Z,99012.25
2022-11-22T12:30:02.490Z,99007.28
2022-11-22T12:32:35.149Z,99008.88
2022-11-22T12:35:13.555Z,99003.84
2022-11-22T12:38:04.096Z,99004.53
2022-11-22T12:40:41.830Z,99003.03
2022-11-22T12:43:22.991Z,99007.13
2022-11-22T12:45:53.801Z,99003.56
2022-11-22T12:48:48.380Z,99000.97
2022-11-22T12:51:42.614Z,98993.59
2022-11-22T12:54:15.432Z,99001.44
2022-11-22T12:56:56.340Z,98987.25
2022-11-22T12:59:34.080Z,98995.28
2022-11-22T13:02:19.817Z,98999.72
2022-11-22T13:05:17.702Z,98990.50
2022-11-22T13:08:09.430Z,98998.72
2022-11-22T13:10:43.553Z,98998.38
2022-11-22T13:13:37.147Z,99003.00
2022-11-22T13:16:08.980Z,98999.69
2022-11-22T13:18:45.414Z,99005.59
2022-11-22T13:21:22.576Z,99002.28
2022-11-22T13:23:50.091Z,99004.56
2022-11-22T13:26:27.637Z,99000.63
2022-11-22T13:28:55.840Z,99002.88
2022-11-22T13:31:22.570Z,99005.22
2022-11-22T13:33:55.006Z,99000.19
2022-11-22T13:36:27.464Z,99009.25
2022-11-22T13:38:59.991Z,99001.59
2022-11-22T13:41:52.065Z,99002.53
2022-11-22T13:44:30.910Z,98994.25
2022-11-22T13:47:06.247Z,98998.91
2022-11-22T13:49:39.107Z,98993.41
2022-11-22T13:52:16.855Z,98995.72
2022-11-22T13:54:46.385Z,98995.31
2022-11-22T13:57:45.081Z,98990.91
2022-11-22T14:00:11.453Z,98992.78
2022-11-22T14:02:39.768Z,98997.66
2022-11-22T14:05:19.918Z,98998.94
2022-11-22T14:07:51.415Z,98999.81
2022-11-22T14:10:23.916Z,99002.97
2022-11-22T14:12:59.531Z,98990.44
2022-11-22T14:15:38.201Z,98997.19
2022-11-22T14:22:12.805Z,98989.69
2022-11-22T14:24:53.214Z,98979.78
2022-11-22T14:27:34.864Z,98985.69
2022-11-22T14:30:46.468Z,98986.06
2022-11-22T14:33:28.491Z,98976.47
2022-11-22T14:36:06.849Z,98982.09
2022-11-22T14:38:38.693Z,98980.88
2022-11-22T14:41:30.357Z,98989.00
2022-11-22T14:44:26.962Z,99001.91
2022-11-22T14:47:11.840Z,98996.63
2022-11-22T14:49:47.976Z,98995.59
2022-11-22T14:52:21.774Z,98995.50
2022-11-22T14:54:51.982Z,99000.13
2022-11-22T14:57:24.781Z,98990.63
2022-11-22T15:00:14.813Z,98995.44
2022-11-22T15:02:53.451Z,99006.69
2022-11-22T15:09:16.271Z,99009.41
2022-11-22T15:09:39.334Z,99013.25
2022-11-22T15:12:30.017Z,99008.13
2022-11-22T15:57:38.474Z,99058.41
2022-11-22T16:00:35.433Z,99064.44
2022-11-22T16:03:02.855Z,99073.34
2022-11-22T16:06:07.518Z,99078.44
2022-11-22T16:08:31.088Z,99086.06
2022-11-22T16:10:59.269Z,99091.03
2022-11-22T16:13:28.021Z,99082.84
2022-11-22T16:16:18.558Z,99080.22
2022-11-22T16:18:45.735Z,99078.88
2022-11-22T16:21:14.935Z,99079.56
2022-11-22T16:23:42.960Z,99083.75
2022-11-22T16:26:25.216Z,99089.69
2022-11-22T16:28:56.940Z,99091.00
2022-11-22T16:31:29.067Z,99080.97
2022-11-22T16:33:57.055Z,99092.03
2022-11-22T16:36:28.377Z,99098.44
2022-11-22T16:38:54.890Z,99098.50
2022-11-22T16:41:26.157Z,99095.03
2022-11-22T16:43:56.751Z,99087.53
2022-11-22T16:46:23.213Z,99095.88
2022-11-22T16:48:49.961Z,99098.59
2022-11-22T16:51:30.292Z,99090.53
2022-11-22T16:53:59.824Z,99092.41
2022-11-22T16:56:29.352Z,99089.94
2022-11-22T16:58:57.468Z,99087.16
2022-11-22T17:01:26.465Z,99094.59
2022-11-22T17:03:57.574Z,99079.84
2022-11-22T17:06:26.171Z,99081.88
2022-11-22T17:08:55.105Z,99086.38
2022-11-22T17:11:27.242Z,99078.69
2022-11-22T17:13:54.246Z,99077.97
2022-11-22T17:16:23.550Z,99083.94
2022-11-22T17:18:50.091Z,99083.94
2022-11-22T17:21:37.854Z,99087.78
2022-11-22T17:24:19.674Z,99088.31
2022-11-22T17:26:46.185Z,99091.09
2022-11-22T17:29:34.844Z,99086.88
2022-11-22T17:31:59.270Z,99086.19
2022-11-22T17:34:25.729Z,99090.91
2022-11-22T17:36:52.133Z,99094.00
2022-11-22T17:39:18.564Z,99085.34
2022-11-22T17:41:48.687Z,99089.94
2022-11-22T17:44:19.777Z,99088.25
2022-11-22T17:46:47.157Z,99083.06
2022-11-22T17:49:16.382Z,99090.31
2022-11-22T17:51:43.621Z,99091.19
2022-11-22T17:54:10.057Z,99097.09
2022-11-22T17:56:37.482Z,99086.31
2022-11-22T17:59:04.945Z,99092.84
2022-11-22T18:01:32.140Z,99105.13
2022-11-22T18:03:58.703Z,99109.13
2022-11-22T18:06:43.409Z,99101.19
2022-11-22T18:09:10.203Z,99106.09
2022-11-22T18:11:36.664Z,99104.94
2022-11-22T18:14:03.111Z,99096.53
2022-11-22T18:16:31.103Z,99100.88
2022-11-22T18:18:58.424Z,99112.00
2022-11-22T18:21:26.922Z,99105.13
2022-11-22T18:23:53.427Z,99105.53
2022-11-22T18:29:39.089Z,99107.16
2022-11-22T18:31:53.942Z,99109.69
2022-11-22T18:34:22.289Z,99096.75
2022-11-22T18:36:55.426Z,99103.66
2022-11-22T18:39:24.310Z,99098.56
2022-11-22T18:41:50.777Z,99108.81
2022-11-22T18:44:17.906Z,99107.75
2022-11-22T18:46:44.398Z,99111.16
2022-11-22T18:49:10.827Z,99110.16
2022-11-22T18:51:37.294Z,99120.97
2022-11-22T18:54:03.863Z,99131.19
2022-11-22T18:56:30.256Z,99132.28
2022-11-22T18:58:56.711Z,99128.81
2022-11-22T19:01:23.710Z,99127.78
2022-11-22T19:03:50.261Z,99121.63
2022-11-22T19:06:18.865Z,99126.59
2022-11-22T19:08:48.332Z,99121.50
2022-11-22T19:11:15.746Z,99133.16
2022-11-22T19:13:44.192Z,99126.69
2022-11-22T19:16:13.784Z,99126.00
2022-11-22T19:18:43.042Z,99127.06
2022-11-22T19:21:09.694Z,99126.97
2022-11-22T19:23:36.875Z,99135.06
2022-11-22T19:26:14.287Z,99115.03
2022-11-22T19:28:41.619Z,99126.59
2022-11-22T19:31:12.265Z,99129.22
2022-11-22T19:33:39.180Z,99122.66
2022-11-22T19:36:11.160Z,99117.09
2022-11-22T19:38:37.702Z,99123.00
2022-11-22T19:41:12.174Z,99115.97
2022-11-22T19:43:39.672Z,99121.00
2022-11-22T19:46:06.842Z,99126.19
2022-11-22T19:48:35.714Z,99128.19
2022-11-22T19:51:10.774Z,99134.09
2022-11-22T19:53:38.052Z,99140.28
2022-11-22T19:56:06.888Z,99137.75
2022-11-22T19:58:33.985Z,99126.41
2022-11-22T20:01:05.867Z,99136.16
2022-11-22T20:03:37.074Z,99122.91
2022-11-22T20:06:05.691Z,99115.31
2022-11-22T20:08:32.307Z,99123.78
2022-11-22T20:11:06.034Z,99129.78
2022-11-22T20:13:40.335Z,99140.38
2022-11-22T20:16:23.137Z,99137.56
2022-11-22T20:19:00.994Z,99142.09
2022-11-22T20:21:30.694Z,99138.59
2022-11-22T20:23:58.065Z,99144.91
2022-11-22T20:26:26.510Z,99135.78
2022-11-22T20:28:58.310Z,99140.69
2022-11-22T20:31:25.336Z,99142.75
2022-11-22T20:33:53.807Z,99137.47
2022-11-22T20:36:23.139Z,99141.72
2022-11-22T20:38:50.420Z,99146.50
2022-11-22T20:41:18.896Z,99142.72
2022-11-22T20:43:45.709Z,99151.56
2022-11-22T20:46:14.442Z,99154.94
2022-11-22T20:48:42.854Z,99142.84
2022-11-22T20:51:18.660Z,99142.38
2022-11-22T20:53:45.650Z,99142.94
2022-11-22T20:56:12.944Z,99137.06
2022-11-22T20:58:40.157Z,99142.16
2022-11-22T21:01:09.183Z,99148.25
2022-11-22T21:03:35.995Z,99151.75
2022-11-22T21:06:02.907Z,99144.25
2022-11-22T21:08:29.767Z,99145.75
2022-11-22T21:11:27.514Z,99137.56
2022-11-22T21:13:55.546Z,99143.88
2022-11-22T21:16:25.139Z,99141.25
2022-11-22T21:18:53.524Z,99143.75
2022-11-22T21:21:23.063Z,99142.81
2022-11-22T21:23:51.430Z,99144.25
2022-11-22T21:26:18.342Z,99151.75
2022-11-22T21:28:44.982Z,99151.03
2022-11-22T21:31:11.451Z,99140.88
2022-11-22T21:33:37.876Z,99141.13
2022-11-22T21:36:06.735Z,99152.03
2022-11-22T21:38:35.061Z,99156.66
2022-11-22T21:41:24.181Z,99150.22
2022-11-22T21:43:53.346Z,99152.03
2022-11-22T21:46:20.309Z,99156.00
2022-11-22T21:48:49.363Z,99146.53
2022-11-22T21:51:15.885Z,99145.56
2022-11-22T21:53:42.378Z,99150.16
2022-11-22T21:56:09.492Z,99150.16
2022-11-22T21:58:35.960Z,99156.81
2022-11-22T22:01:03.667Z,99149.31
2022-11-22T22:03:30.745Z,99152.22
2022-11-22T22:05:58.012Z,99153.53
2022-11-22T22:08:26.452Z,99157.88
2022-11-22T22:10:52.964Z,99149.56
2022-11-22T22:13:19.502Z,99166.03
2022-11-22T22:15:47.447Z,99158.47
2022-11-22T22:18:14.558Z,99154.53
2022-11-22T22:20:41.044Z,99155.50
2022-11-22T22:23:07.462Z,99156.91
2022-11-22T22:25:33.988Z,99155.78
2022-11-22T22:28:00.532Z,99159.53
2022-11-22T22:30:27.003Z,99158.50
2022-11-22T22:32:53.490Z,99165.00
2022-11-22T22:35:19.967Z,99168.94
2022-11-22T22:37:46.471Z,99171.84
2022-11-22T22:40:12.939Z,99179.56
2022-11-22T22:42:39.383Z,99173.72
2022-11-22T22:45:06.437Z,99181.59
2022-11-22T22:47:32.899Z,99175.25
2022-11-22T22:49:59.422Z,99186.22
2022-11-22T22:52:25.890Z,99183.88
2022-11-22T22:54:52.330Z,99177.66
2022-11-22T22:57:18.742Z,99177.47
2022-11-22T22:59:45.191Z,99184.41
2022-11-22T23:02:11.618Z,99184.22
2022-11-22T23:04:40.150Z,99189.59
2022-11-22T23:07:06.889Z,99180.94
2022-11-22T23:09:33.487Z,99178.38
2022-11-22T23:12:12.035Z,99178.22
2022-11-22T23:14:40.048Z,99184.91
2022-11-22T23:17:08.796Z,99181.81
2022-11-22T23:19:35.367Z,99177.50
2022-11-22T23:22:02.008Z,99178.13
2022-11-22T23:24:34.406Z,99180.41
2022-11-22T23:27:01.026Z,99186.16
2022-11-22T23:29:27.477Z,99191.97
2022-11-22T23:31:54.278Z,99185.47
2022-11-22T23:34:20.786Z,99193.78
2022-11-22T23:36:47.314Z,99190.78
2022-11-22T23:39:13.793Z,99200.03
2022-11-22T23:41:40.278Z,99189.69
2022-11-22T23:44:06.996Z,99197.22
2022-11-22T23:46:33.468Z,99201.56
2022-11-22T23:49:01.279Z,99191.88
2022-11-22T23:51:29.610Z,99197.22
2022-11-22T23:54:00.907Z,99195.13
2022-11-22T23:56:28.968Z,99190.34
2022-11-22T23:58:57.741Z,99184.88
